Time;durP1;ratioP1;P1;durP2;ratioP2;P2;SDS_P1;SDS_P2;PMS_P1;PMS_P2;Temp;Humidity;BMP_temperature;BMP_pressure;BME280_temperature;BME280_humidity;BME280_pressure;Samples;Min_cycle;Max_cycle;Signal;HPM_P1;HPM_P2
2022/11/09 00:01:23;;;;;;;;;;;8.70;88.40;;;;;;5076097;28;19945;-86
2022/11/09 00:03:53;;;;;;;;;;;8.80;88.30;;;;;;5075253;28;19963;-86
2022/11/09 00:06:18;;;;;;;;;;;8.80;88.30;;;;;;5076055;28;19943;-86
2022/11/09 00:08:44;;;;;;;;;;;8.90;88.10;;;;;;5075176;28;19948;-86
2022/11/09 00:11:10;;;;;;;;;;;8.90;87.90;;;;;;5075928;28;19944;-86
2022/11/09 00:13:36;;;;;;;;;;;8.90;87.90;;;;;;5075155;28;19972;-86
2022/11/09 00:16:02;;;;;;;;;;;8.90;88.30;;;;;;5075858;28;19951;-86
2022/11/09 00:18:28;;;;;;;;;;;8.90;88.60;;;;;;5075776;28;20439;-86
2022/11/09 00:20:53;;;;;;;;;;;8.80;88.50;;;;;;5075758;28;19941;-87
2022/11/09 00:23:19;;;;;;;;;;;8.90;88.60;;;;;;5074883;28;20322;-86
2022/11/09 00:25:45;;;;;;;;;;;9.00;88.70;;;;;;5075651;28;19948;-86
2022/11/09 00:28:10;;;;;;;;;;;9.00;88.60;;;;;;5075622;28;20319;-86
2022/11/09 00:30:36;;;;;;;;;;;9.10;88.30;;;;;;5104350;28;19979;-86
2022/11/09 00:33:01;;;;;;;;;;;9.20;88.30;;;;;;5115271;28;20047;-86
2022/11/09 00:35:27;;;;;;;;;;;9.00;88.10;;;;;;5116094;28;19942;-86
2022/11/09 00:37:53;;;;;;;;;;;8.90;88.00;;;;;;5113597;28;19935;-86
2022/11/09 00:40:18;;;;;;;;;;;8.70;88.70;;;;;;5116006;28;19938;-86
2022/11/09 00:42:44;;;;;;;;;;;8.80;89.40;;;;;;5115107;28;19960;-86
2022/11/09 00:45:10;;;;;;;;;;;8.80;89.50;;;;;;5115887;28;20027;-87
2022/11/09 00:47:35;;;;;;;;;;;8.90;89.50;;;;;;5115198;28;20405;-86
2022/11/09 00:50:01;;;;;;;;;;;9.00;89.50;;;;;;5116377;28;19944;-87
2022/11/09 00:52:26;;;;;;;;;;;9.10;89.30;;;;;;5115526;28;20397;-86
2022/11/09 00:54:52;;;;;;;;;;;9.10;89.00;;;;;;5114294;28;19945;-86
2022/11/09 00:57:17;;;;;;;;;;;9.10;89.10;;;;;;5115666;28;19937;-86
2022/11/09 00:59:43;;;;;;;;;;;9.10;89.10;;;;;;5115827;28;20008;-86
2022/11/09 01:02:08;;;;;;;;;;;9.20;89.20;;;;;;5115452;28;19957;-86
2022/11/09 01:04:34;;;;;;;;;;;9.10;89.40;;;;;;5114171;28;19945;-86
2022/11/09 01:07:00;;;;;;;;;;;9.20;89.50;;;;;;5115461;28;19995;-87
2022/11/09 01:09:25;;;;;;;;;;;9.30;89.10;;;;;;5112865;28;19941;-86
2022/11/09 01:11:51;;;;;;;;;;;9.30;88.90;;;;;;5115376;28;19942;-86
2022/11/09 01:14:16;;;;;;;;;;;9.30;88.80;;;;;;5114567;28;19950;-86
2022/11/09 01:16:42;;;;;;;;;;;9.30;88.70;;;;;;5115267;28;20416;-86
2022/11/09 01:19:07;;;;;;;;;;;9.10;89.40;;;;;;5115491;28;20382;-86
2022/11/09 01:21:33;;;;;;;;;;;9.10;89.60;;;;;;5115127;28;20393;-86
2022/11/09 01:24:00;;;;;;;;;;;9.10;89.50;;;;;;5114008;28;19957;-86
2022/11/09 01:26:26;;;;;;;;;;;9.10;89.10;;;;;;5115391;28;20075;-86
2022/11/09 01:28:51;;;;;;;;;;;9.00;89.70;;;;;;5115070;28;20554;-86
2022/11/09 01:31:18;;;;;;;;;;;9.10;89.70;;;;;;5114850;28;19975;-86
2022/11/09 01:33:43;;;;;;;;;;;9.20;89.70;;;;;;5113434;28;20314;-86
2022/11/09 01:36:10;;;;;;;;;;;9.20;89.80;;;;;;5114874;28;19937;-86
2022/11/09 01:38:36;;;;;;;;;;;9.20;90.00;;;;;;5113389;28;19940;-86
2022/11/09 01:41:02;;;;;;;;;;;9.20;90.00;;;;;;5115094;28;19945;-86
2022/11/09 01:43:28;;;;;;;;;;;9.10;90.00;;;;;;5113919;28;20397;-86
2022/11/09 01:45:57;;;;;;;;;;;9.10;90.00;;;;;;5114706;28;19944;-86
2022/11/09 01:48:30;;;;;;;;;;;9.10;90.10;;;;;;5114422;28;20461;-86
2022/11/09 01:50:57;;;;;;;;;;;9.10;90.10;;;;;;5113373;28;19939;-86
2022/11/09 01:53:26;;;;;;;;;;;9.20;90.10;;;;;;5113157;28;19951;-86
2022/11/09 01:55:53;;;;;;;;;;;9.20;90.10;;;;;;5114548;28;19941;-86
2022/11/09 01:58:22;;;;;;;;;;;9.20;89.60;;;;;;5114480;28;19938;-86
2022/11/09 02:00:48;;;;;;;;;;;9.10;89.50;;;;;;5114494;28;19961;-87
2022/11/09 02:03:17;;;;;;;;;;;9.10;89.60;;;;;;5113539;28;19962;-87
2022/11/09 02:05:43;;;;;;;;;;;9.10;89.50;;;;;;5114319;28;20325;-86
2022/11/09 02:08:11;;;;;;;;;;;9.00;89.80;;;;;;5113584;28;20011;-86
2022/11/09 02:10:42;;;;;;;;;;;8.90;90.10;;;;;;5113255;28;20034;-86
2022/11/09 02:13:09;;;;;;;;;;;8.80;90.50;;;;;;5113438;28;19947;-86
2022/11/09 02:15:35;;;;;;;;;;;8.70;91.10;;;;;;5114178;28;20036;-86
2022/11/09 02:18:01;;;;;;;;;;;8.80;91.00;;;;;;5114131;28;19942;-86
2022/11/09 02:20:27;;;;;;;;;;;8.80;90.90;;;;;;5114113;28;19938;-87
2022/11/09 02:22:53;;;;;;;;;;;8.90;90.80;;;;;;5113005;28;19980;-86
2022/11/09 02:25:19;;;;;;;;;;;9.00;90.50;;;;;;5113057;28;19949;-87
2022/11/09 02:27:44;;;;;;;;;;;9.10;90.20;;;;;;5113944;28;19939;-87
2022/11/09 02:30:11;;;;;;;;;;;9.10;90.00;;;;;;5113791;28;19980;-87
2022/11/09 02:32:36;;;;;;;;;;;9.20;90.00;;;;;;5113924;28;20024;-87
2022/11/09 02:35:02;;;;;;;;;;;9.20;89.60;;;;;;5112979;28;20056;-86
2022/11/09 02:37:33;;;;;;;;;;;9.00;89.20;;;;;;5113819;28;19973;-86
2022/11/09 02:40:00;;;;;;;;;;;8.90;89.40;;;;;;5111246;28;19946;-87
2022/11/09 02:42:25;;;;;;;;;;;8.80;89.50;;;;;;5113684;28;19957;-86
2022/11/09 02:44:54;;;;;;;;;;;8.90;89.80;;;;;;5113679;28;19949;-86
2022/11/09 02:47:19;;;;;;;;;;;9.00;90.00;;;;;;5112415;28;20034;-86
2022/11/09 02:49:45;;;;;;;;;;;9.10;89.70;;;;;;5112850;28;20089;-86
2022/11/09 02:52:11;;;;;;;;;;;9.00;89.60;;;;;;5111729;28;20252;-86
2022/11/09 02:54:36;;;;;;;;;;;9.10;89.60;;;;;;5112204;28;19971;-86
2022/11/09 02:57:02;;;;;;;;;;;9.30;89.50;;;;;;5113916;28;19943;-86
2022/11/09 02:59:27;;;;;;;;;;;9.30;89.40;;;;;;5113549;28;19949;-86
2022/11/09 03:01:53;;;;;;;;;;;9.30;89.40;;;;;;5118043;28;20460;-86
2022/11/09 03:04:18;;;;;;;;;;;9.20;89.00;;;;;;5120365;28;19946;-86
2022/11/09 03:06:44;;;;;;;;;;;9.10;89.10;;;;;;5120624;28;19945;-86
2022/11/09 03:09:10;;;;;;;;;;;9.10;89.10;;;;;;5118632;28;20386;-87
2022/11/09 03:11:36;;;;;;;;;;;9.00;89.60;;;;;;5119926;27;19949;-86
2022/11/09 03:14:02;;;;;;;;;;;8.90;89.80;;;;;;5120265;27;19978;-86
2022/11/09 03:16:28;;;;;;;;;;;8.90;90.00;;;;;;5119280;27;19943;-86
2022/11/09 03:18:54;;;;;;;;;;;9.00;90.10;;;;;;5120221;27;19964;-86
2022/11/09 03:21:20;;;;;;;;;;;9.00;90.70;;;;;;5120200;28;20032;-86
2022/11/09 03:23:46;;;;;;;;;;;9.00;90.90;;;;;;5118295;28;19969;-86
2022/11/09 03:26:12;;;;;;;;;;;9.10;91.00;;;;;;5118608;28;19945;-86
2022/11/09 03:28:38;;;;;;;;;;;9.20;90.80;;;;;;5118809;28;19941;-87
2022/11/09 03:31:03;;;;;;;;;;;9.30;90.60;;;;;;5119910;27;19997;-86
2022/11/09 03:33:29;;;;;;;;;;;9.40;90.20;;;;;;5120136;27;19938;-87
2022/11/09 03:35:54;;;;;;;;;;;9.40;90.10;;;;;;5100796;28;19947;-86
2022/11/09 03:38:20;;;;;;;;;;;9.40;89.80;;;;;;5099612;28;19936;-86
2022/11/09 03:40:45;;;;;;;;;;;9.50;89.00;;;;;;5112720;28;19991;-87
2022/11/09 03:43:11;;;;;;;;;;;9.50;89.10;;;;;;5119107;28;20485;-87
2022/11/09 03:45:37;;;;;;;;;;;9.50;89.10;;;;;;5119934;28;19941;-86
2022/11/09 03:48:02;;;;;;;;;;;9.50;89.10;;;;;;5120011;27;20355;-87
2022/11/09 03:50:29;;;;;;;;;;;9.60;89.00;;;;;;5119898;28;20036;-87
2022/11/09 03:52:54;;;;;;;;;;;9.50;89.00;;;;;;5118888;27;19986;-87
2022/11/09 03:55:20;;;;;;;;;;;9.40;89.00;;;;;;5118108;28;19940;-86
2022/11/09 03:57:45;;;;;;;;;;;9.30;88.90;;;;;;5119842;28;20376;-87
2022/11/09 04:00:12;;;;;;;;;;;9.30;88.90;;;;;;5119816;28;19938;-86
2022/11/09 04:02:37;;;;;;;;;;;9.20;89.20;;;;;;5118962;27;19956;-86
2022/11/09 04:05:03;;;;;;;;;;;9.20;89.40;;;;;;5119780;28;20031;-86
2022/11/09 04:07:29;;;;;;;;;;;9.10;89.80;;;;;;5119809;27;20351;-86
2022/11/09 04:09:54;;;;;;;;;;;9.20;89.90;;;;;;5118061;28;20334;-86
2022/11/09 04:12:20;;;;;;;;;;;9.30;89.90;;;;;;5118387;28;20397;-86
2022/11/09 04:14:46;;;;;;;;;;;9.30;89.90;;;;;;5116520;28;19937;-86
2022/11/09 04:17:11;;;;;;;;;;;9.30;89.90;;;;;;5116432;28;19943;-86
2022/11/09 04:19:37;;;;;;;;;;;9.40;89.70;;;;;;5115666;28;20037;-87
2022/11/09 04:22:02;;;;;;;;;;;9.40;89.70;;;;;;5116323;28;20025;-87
2022/11/09 04:24:28;;;;;;;;;;;9.50;89.40;;;;;;5115082;28;20028;-86
2022/11/09 04:26:53;;;;;;;;;;;9.50;89.30;;;;;;5115466;28;20430;-86
2022/11/09 04:29:19;;;;;;;;;;;9.50;89.30;;;;;;5116096;28;20505;-86
2022/11/09 04:31:46;;;;;;;;;;;9.60;89.30;;;;;;5115904;28;19953;-87
2022/11/09 04:34:12;;;;;;;;;;;9.70;89.00;;;;;;5116155;28;19999;-87
2022/11/09 04:36:37;;;;;;;;;;;9.70;88.90;;;;;;5116112;28;19940;-87
2022/11/09 04:39:03;;;;;;;;;;;9.80;88.70;;;;;;5116049;28;20325;-87
2022/11/09 04:41:28;;;;;;;;;;;9.80;88.30;;;;;;5114660;28;20494;-87
2022/11/09 04:43:54;;;;;;;;;;;9.80;88.40;;;;;;5115852;28;20446;-86
2022/11/09 04:46:19;;;;;;;;;;;9.90;88.20;;;;;;5116158;28;20039;-86
2022/11/09 04:48:45;;;;;;;;;;;9.90;87.70;;;;;;5115865;28;20282;-86
2022/11/09 04:51:10;;;;;;;;;;;9.90;87.50;;;;;;5114884;28;19970;-86
2022/11/09 04:53:36;;;;;;;;;;;9.90;87.50;;;;;;5115664;28;19947;-87
2022/11/09 04:56:03;;;;;;;;;;;9.90;87.50;;;;;;5114363;28;19950;-86
2022/11/09 04:58:28;;;;;;;;;;;9.90;87.90;;;;;;5115701;28;20039;-86
2022/11/09 05:00:54;;;;;;;;;;;9.90;88.30;;;;;;5114776;28;19949;-86
2022/11/09 05:03:20;;;;;;;;;;;9.90;88.30;;;;;;5115518;28;19976;-86
2022/11/09 05:05:45;;;;;;;;;;;9.90;88.10;;;;;;5115808;28;20210;-86
2022/11/09 05:08:11;;;;;;;;;;;9.90;88.10;;;;;;5115504;28;19942;-87
2022/11/09 05:10:36;;;;;;;;;;;9.90;88.30;;;;;;5113656;28;19938;-86
2022/11/09 05:13:03;;;;;;;;;;;9.80;88.70;;;;;;5114074;28;19954;-87
2022/11/09 05:15:29;;;;;;;;;;;9.80;88.70;;;;;;5115326;28;19968;-87
2022/11/09 05:17:55;;;;;;;;;;;9.80;88.80;;;;;;5115346;28;19937;-87
2022/11/09 05:20:21;;;;;;;;;;;9.80;88.60;;;;;;5114857;28;19941;-87
2022/11/09 05:25:30;;;;;;;;;;;9.80;88.10;;;;;;5113414;28;19985;-87
2022/11/09 05:27:56;;;;;;;;;;;9.80;88.80;;;;;;5115118;28;19941;-87
2022/11/09 05:30:21;;;;;;;;;;;9.60;88.90;;;;;;5114109;28;19968;-86
2022/11/09 05:32:47;;;;;;;;;;;9.60;88.80;;;;;;5115311;28;20043;-87
2022/11/09 05:35:13;;;;;;;;;;;9.60;88.70;;;;;;5113667;28;20326;-86
2022/11/09 05:37:38;;;;;;;;;;;9.60;88.80;;;;;;5113644;28;19943;-87
2022/11/09 05:40:05;;;;;;;;;;;9.50;88.40;;;;;;5113583;28;19950;-87
2022/11/09 05:42:30;;;;;;;;;;;9.50;88.60;;;;;;5114661;28;19983;-87
2022/11/09 05:44:56;;;;;;;;;;;9.50;88.90;;;;;;5113179;28;20397;-87
2022/11/09 05:47:21;;;;;;;;;;;9.50;88.90;;;;;;5114703;28;20415;-87
2022/11/09 05:49:47;;;;;;;;;;;9.70;88.70;;;;;;5114189;28;19936;-87
2022/11/09 05:52:12;;;;;;;;;;;9.70;88.60;;;;;;5114074;28;19967;-87
2022/11/09 05:54:38;;;;;;;;;;;9.80;88.50;;;;;;5114579;28;19936;-87
2022/11/09 05:57:03;;;;;;;;;;;9.70;88.60;;;;;;5112744;28;19951;-87
2022/11/09 05:59:29;;;;;;;;;;;9.80;89.20;;;;;;5114455;28;19938;-86
2022/11/09 06:01:54;;;;;;;;;;;9.70;89.40;;;;;;5113536;28;19943;-86
2022/11/09 06:04:20;;;;;;;;;;;9.70;89.10;;;;;;5114266;28;20323;-86
2022/11/09 06:06:45;;;;;;;;;;;9.70;89.10;;;;;;5112838;28;19943;-86
2022/11/09 06:09:11;;;;;;;;;;;9.90;88.80;;;;;;5112914;28;20031;-86
2022/11/09 06:11:36;;;;;;;;;;;9.90;88.50;;;;;;5111351;28;19944;-86
2022/11/09 06:14:02;;;;;;;;;;;9.90;88.30;;;;;;5114188;28;19942;-86
2022/11/09 06:16:28;;;;;;;;;;;9.90;88.50;;;;;;5113074;27;19953;-86
2022/11/09 06:18:54;;;;;;;;;;;10.00;88.80;;;;;;5113361;28;19943;-86
2022/11/09 06:21:19;;;;;;;;;;;10.00;88.70;;;;;;5112582;28;19945;-86
2022/11/09 06:23:45;;;;;;;;;;;10.20;88.40;;;;;;5106467;28;20056;-86
2022/11/09 06:26:11;;;;;;;;;;;10.30;87.60;;;;;;5110198;28;19980;-87
2022/11/09 06:28:37;;;;;;;;;;;10.40;87.50;;;;;;5105802;28;20673;-87
2022/11/09 06:31:05;;;;;;;;;;;10.40;87.40;;;;;;5084197;22;20517;-87
2022/11/09 06:33:31;;;;;;;;;;;10.40;86.80;;;;;;5073302;28;19943;-87
2022/11/09 06:35:57;;;;;;;;;;;10.40;86.60;;;;;;5070841;28;20000;-88
2022/11/09 06:38:25;;;;;;;;;;;10.60;86.70;;;;;;5069757;28;19943;-87
2022/11/09 06:40:51;;;;;;;;;;;10.70;86.80;;;;;;5069944;28;19949;-88
2022/11/09 06:43:16;;;;;;;;;;;10.50;86.70;;;;;;5072061;28;19966;-87
2022/11/09 06:45:42;;;;;;;;;;;10.60;86.40;;;;;;5070044;28;19944;-87
2022/11/09 06:48:08;;;;;;;;;;;10.70;86.00;;;;;;5073630;28;19951;-87
2022/11/09 06:50:34;;;;;;;;;;;10.80;85.80;;;;;;5072524;28;20036;-88
2022/11/09 06:53:01;;;;;;;;;;;10.90;86.10;;;;;;5072447;28;19958;-87
2022/11/09 06:55:27;;;;;;;;;;;10.90;86.10;;;;;;5070125;28;19947;-87
2022/11/09 06:57:52;;;;;;;;;;;10.90;87.40;;;;;;5068123;28;20464;-87
2022/11/09 07:00:18;;;;;;;;;;;11.10;87.70;;;;;;5065179;28;19950;-87
2022/11/09 07:02:44;;;;;;;;;;;11.10;87.80;;;;;;5071997;28;20063;-87
2022/11/09 07:05:09;;;;;;;;;;;11.10;87.00;;;;;;5071446;28;20430;-88
2022/11/09 07:07:35;;;;;;;;;;;11.10;85.90;;;;;;5062125;28;19955;-87
2022/11/09 07:10:00;;;;;;;;;;;11.30;84.90;;;;;;5065622;28;19950;-87
2022/11/09 07:12:26;;;;;;;;;;;11.40;83.80;;;;;;5068618;28;20045;-87
2022/11/09 07:14:51;;;;;;;;;;;11.50;83.80;;;;;;5070312;28;19966;-88
2022/11/09 07:17:17;;;;;;;;;;;11.50;84.40;;;;;;5072116;28;19945;-88
2022/11/09 07:19:43;;;;;;;;;;;11.40;84.80;;;;;;5071169;28;19954;-87
2022/11/09 07:22:08;;;;;;;;;;;11.30;85.30;;;;;;5061408;28;19964;-88
2022/11/09 07:24:34;;;;;;;;;;;11.40;85.70;;;;;;5070245;28;20037;-88
2022/11/09 07:26:59;;;;;;;;;;;11.60;86.00;;;;;;5066568;28;19939;-88
2022/11/09 07:29:25;;;;;;;;;;;11.70;85.50;;;;;;5070276;28;19967;-88
2022/11/09 07:31:50;;;;;;;;;;;11.80;85.20;;;;;;5061516;28;19949;-88
2022/11/09 07:34:16;;;;;;;;;;;12.00;84.00;;;;;;5063577;28;19969;-88
2022/11/09 07:36:41;;;;;;;;;;;12.10;81.60;;;;;;5068452;28;19946;-89
2022/11/09 07:39:07;;;;;;;;;;;12.10;81.90;;;;;;5062012;28;19943;-87
2022/11/09 07:41:32;;;;;;;;;;;12.10;82.80;;;;;;5062208;28;19948;-87
2022/11/09 07:43:58;;;;;;;;;;;12.10;82.80;;;;;;5068963;28;20101;-87
2022/11/09 07:46:23;;;;;;;;;;;12.10;83.70;;;;;;5070533;28;19944;-87
2022/11/09 07:48:49;;;;;;;;;;;12.20;83.80;;;;;;5074258;28;19955;-89
2022/11/09 07:51:14;;;;;;;;;;;12.40;83.20;;;;;;5073167;28;19959;-88
2022/11/09 07:53:40;;;;;;;;;;;12.60;82.90;;;;;;5073845;28;19952;-89
2022/11/09 07:56:06;;;;;;;;;;;12.80;82.50;;;;;;5072966;28;19948;-89
2022/11/09 07:58:33;;;;;;;;;;;12.70;82.70;;;;;;5073645;28;19943;-89
2022/11/09 08:00:58;;;;;;;;;;;12.70;82.80;;;;;;5071540;28;19949;-89
2022/11/09 08:03:24;;;;;;;;;;;12.60;83.50;;;;;;5073068;28;20004;-88
2022/11/09 08:05:50;;;;;;;;;;;12.40;83.80;;;;;;5069926;28;20045;-89
2022/11/09 08:08:16;;;;;;;;;;;12.40;84.40;;;;;;5069572;28;20076;-88
2022/11/09 08:10:42;;;;;;;;;;;12.40;84.30;;;;;;5072531;28;19978;-88
2022/11/09 08:13:12;;;;;;;;;;;12.40;84.30;;;;;;5068344;28;20213;-89
2022/11/09 08:15:38;;;;;;;;;;;12.40;84.30;;;;;;5069101;28;19993;-89
2022/11/09 08:18:05;;;;;;;;;;;12.30;84.40;;;;;;5073501;28;20389;-89
2022/11/09 08:20:31;;;;;;;;;;;12.20;84.50;;;;;;5073510;28;20005;-88
2022/11/09 08:22:56;;;;;;;;;;;12.30;84.30;;;;;;5068462;28;20504;-88
2022/11/09 08:25:22;;;;;;;;;;;12.30;84.50;;;;;;5067738;28;21437;-88
2022/11/09 08:27:47;;;;;;;;;;;12.30;84.70;;;;;;5071060;28;19969;-88
2022/11/09 08:30:17;;;;;;;;;;;12.20;84.00;;;;;;5071944;28;21671;-88
2022/11/09 08:32:43;;;;;;;;;;;12.20;84.40;;;;;;5070959;28;19962;-89
2022/11/09 08:35:09;;;;;;;;;;;12.20;84.00;;;;;;5074675;28;19993;-88
2022/11/09 08:37:35;;;;;;;;;;;12.20;83.50;;;;;;5074121;28;19953;-88
2022/11/09 08:40:02;;;;;;;;;;;12.30;83.30;;;;;;5069381;28;19956;-89
2022/11/09 08:42:27;;;;;;;;;;;12.40;83.30;;;;;;5072443;28;19963;-89
2022/11/09 08:44:53;;;;;;;;;;;12.60;83.10;;;;;;5064804;28;19964;-89
2022/11/09 08:47:18;;;;;;;;;;;12.70;82.80;;;;;;5069398;28;19943;-89
2022/11/09 08:49:46;;;;;;;;;;;12.70;81.00;;;;;;5070122;28;19950;-90
2022/11/09 08:52:11;;;;;;;;;;;12.60;79.50;;;;;;5074666;28;19939;-88
2022/11/09 08:54:37;;;;;;;;;;;12.60;81.50;;;;;;5074099;28;19990;-88
2022/11/09 08:57:02;;;;;;;;;;;12.70;80.90;;;;;;5074257;28;19952;-89
2022/11/09 08:59:28;;;;;;;;;;;12.70;80.20;;;;;;5071970;28;20402;-90
2022/11/09 09:01:53;;;;;;;;;;;12.70;80.80;;;;;;5071353;28;19953;-88
2022/11/09 09:04:19;;;;;;;;;;;12.80;80.80;;;;;;5074231;28;19962;-88
2022/11/09 09:06:45;;;;;;;;;;;12.80;79.70;;;;;;5073747;28;20420;-88
2022/11/09 09:09:10;;;;;;;;;;;12.80;80.20;;;;;;5072629;28;19955;-89
2022/11/09 09:11:36;;;;;;;;;;;12.90;80.10;;;;;;5072261;28;19943;-89
2022/11/09 09:14:01;;;;;;;;;;;13.00;80.70;;;;;;5071339;28;19946;-88
2022/11/09 09:16:27;;;;;;;;;;;13.00;80.40;;;;;;5072095;28;19948;-88
2022/11/09 09:18:53;;;;;;;;;;;13.10;80.30;;;;;;5066875;28;20411;-89
2022/11/09 09:21:18;;;;;;;;;;;13.30;80.80;;;;;;5071057;28;19951;-89
2022/11/09 09:23:45;;;;;;;;;;;13.50;78.40;;;;;;5068843;28;20823;-89
2022/11/09 09:26:11;;;;;;;;;;;13.70;78.10;;;;;;5071227;28;19940;-88
2022/11/09 09:28:37;;;;;;;;;;;13.90;77.60;;;;;;5071859;28;20413;-89
2022/11/09 09:31:03;;;;;;;;;;;14.10;75.70;;;;;;5065487;28;20450;-88
2022/11/09 09:33:29;;;;;;;;;;;14.10;75.40;;;;;;5072882;28;19950;-88
2022/11/09 09:35:56;;;;;;;;;;;14.20;75.00;;;;;;5069992;28;20315;-89
2022/11/09 09:38:21;;;;;;;;;;;14.20;74.20;;;;;;5086013;28;19946;-88
2022/11/09 09:40:58;;;;;;;;;;;14.40;74.90;;;;;;5067456;28;19947;-88
2022/11/09 09:43:28;;;;;;;;;;;14.70;73.90;;;;;;5072682;28;19963;-89
2022/11/09 09:45:54;;;;;;;;;;;14.90;72.30;;;;;;5065802;28;20388;-89
2022/11/09 09:48:29;;;;;;;;;;;14.90;72.20;;;;;;5072247;28;19943;-89
2022/11/09 09:50:57;;;;;;;;;;;15.10;72.00;;;;;;5072022;28;19947;-89
2022/11/09 09:53:46;;;;;;;;;;;15.30;71.00;;;;;;5070640;28;19978;-89
2022/11/09 09:56:27;;;;;;;;;;;15.40;70.20;;;;;;5066361;28;19942;-89
2022/11/09 09:58:57;;;;;;;;;;;15.10;70.90;;;;;;5071745;28;20803;-89
2022/11/09 10:01:26;;;;;;;;;;;14.90;71.40;;;;;;5067038;28;20427;-89
2022/11/09 10:03:51;;;;;;;;;;;15.00;70.60;;;;;;5073623;28;19964;-88
2022/11/09 10:06:38;;;;;;;;;;;15.00;71.20;;;;;;5072423;28;19986;-88
2022/11/09 10:09:03;;;;;;;;;;;15.10;70.70;;;;;;5071060;28;19995;-88
2022/11/09 10:11:44;;;;;;;;;;;15.20;69.00;;;;;;5070670;28;19939;-88
2022/11/09 10:14:19;;;;;;;;;;;15.10;70.60;;;;;;5072419;28;19941;-88
2022/11/09 10:16:56;;;;;;;;;;;15.30;68.90;;;;;;5072617;28;20392;-88
2022/11/09 10:19:27;;;;;;;;;;;15.40;67.40;;;;;;5069799;28;19946;-88
2022/11/09 10:22:08;;;;;;;;;;;15.70;66.20;;;;;;5070011;28;19972;-89
2022/11/09 10:24:46;;;;;;;;;;;15.80;64.50;;;;;;5069539;28;20514;-89
2022/11/09 10:27:32;;;;;;;;;;;15.70;66.20;;;;;;5069893;28;19953;-88
2022/11/09 10:29:58;;;;;;;;;;;15.70;67.00;;;;;;5070730;28;19986;-88
2022/11/09 10:32:24;;;;;;;;;;;15.90;66.20;;;;;;5070334;28;19943;-88
2022/11/09 10:35:03;;;;;;;;;;;16.00;62.80;;;;;;5067485;28;19990;-88
2022/11/09 10:37:40;;;;;;;;;;;16.20;61.90;;;;;;5071267;28;20404;-88
2022/11/09 10:40:05;;;;;;;;;;;16.50;60.60;;;;;;5066209;28;19953;-89
2022/11/09 10:42:31;;;;;;;;;;;16.70;61.10;;;;;;5069236;28;19963;-89
2022/11/09 10:44:58;;;;;;;;;;;16.50;62.50;;;;;;5069800;28;20345;-88
2022/11/09 10:47:25;;;;;;;;;;;16.50;62.80;;;;;;5058669;28;19952;-89
2022/11/09 10:50:13;;;;;;;;;;;16.60;62.70;;;;;;5068268;28;20030;-88
2022/11/09 10:52:38;;;;;;;;;;;16.50;62.10;;;;;;5068829;28;19968;-88
2022/11/09 10:55:35;;;;;;;;;;;16.80;62.40;;;;;;5070693;28;19943;-88
2022/11/09 10:58:01;;;;;;;;;;;16.90;61.70;;;;;;5056511;28;19946;-89
2022/11/09 11:00:27;;;;;;;;;;;16.90;63.10;;;;;;5070609;28;19944;-89
2022/11/09 11:02:53;;;;;;;;;;;17.00;62.10;;;;;;5071613;28;19960;-89
2022/11/09 11:05:20;;;;;;;;;;;16.80;62.80;;;;;;5069831;28;19944;-90
2022/11/09 11:07:46;;;;;;;;;;;16.80;62.80;;;;;;5071141;28;19945;-89
2022/11/09 11:10:14;;;;;;;;;;;16.60;62.70;;;;;;5070418;28;19950;-89
2022/11/09 11:12:50;;;;;;;;;;;16.60;62.90;;;;;;5072210;28;19958;-89
2022/11/09 11:15:22;;;;;;;;;;;16.50;63.70;;;;;;5072985;28;19940;-89
2022/11/09 11:17:49;;;;;;;;;;;16.20;64.40;;;;;;5072005;28;19946;-89
2022/11/09 11:20:23;;;;;;;;;;;16.10;64.50;;;;;;5072868;28;19946;-89
2022/11/09 11:22:49;;;;;;;;;;;16.20;64.60;;;;;;5075119;28;19994;-89
2022/11/09 11:25:19;;;;;;;;;;;16.20;65.30;;;;;;5075401;28;19941;-89
2022/11/09 11:27:47;;;;;;;;;;;16.20;64.60;;;;;;5076211;28;19946;-89
2022/11/09 11:30:21;;;;;;;;;;;16.10;64.50;;;;;;5076604;28;20074;-89
2022/11/09 11:32:47;;;;;;;;;;;16.00;65.20;;;;;;5076749;28;19933;-89
2022/11/09 11:35:12;;;;;;;;;;;15.80;65.20;;;;;;5074678;28;19952;-89
2022/11/09 11:38:10;;;;;;;;;;;15.90;65.30;;;;;;5076678;28;20091;-89
2022/11/09 11:40:39;;;;;;;;;;;15.80;65.70;;;;;;5041764;28;20039;-89
2022/11/09 11:43:26;;;;;;;;;;;16.10;64.70;;;;;;5076452;28;19959;-89
2022/11/09 11:46:04;;;;;;;;;;;16.30;64.50;;;;;;5074831;28;19951;-89
2022/11/09 11:48:48;;;;;;;;;;;16.40;63.90;;;;;;5076381;28;19932;-89
2022/11/09 11:51:36;;;;;;;;;;;16.60;63.30;;;;;;5076470;28;19942;-89
2022/11/09 11:54:12;;;;;;;;;;;16.70;62.50;;;;;;5075191;28;20422;-89
2022/11/09 11:56:44;;;;;;;;;;;16.80;62.40;;;;;;5075414;28;20341;-89
2022/11/09 11:59:10;;;;;;;;;;;16.60;62.00;;;;;;5076212;28;19947;-89
2022/11/09 12:01:38;;;;;;;;;;;16.50;62.50;;;;;;5076130;28;19937;-89
2022/11/09 12:04:27;;;;;;;;;;;16.80;61.90;;;;;;5075130;28;19955;-89
2022/11/09 12:07:16;;;;;;;;;;;16.70;61.40;;;;;;5047426;28;19943;-89
2022/11/09 12:09:52;;;;;;;;;;;16.80;61.90;;;;;;5045671;28;19950;-89
2022/11/09 12:12:37;;;;;;;;;;;16.90;61.80;;;;;;5074748;28;19951;-89
2022/11/09 12:15:22;;;;;;;;;;;17.30;60.20;;;;;;5075492;28;19978;-89
2022/11/09 12:17:56;;;;;;;;;;;18.40;57.90;;;;;;5075871;28;19946;-90
2022/11/09 12:20:42;;;;;;;;;;;19.70;53.70;;;;;;5075608;28;19943;-89
2022/11/09 12:23:30;;;;;;;;;;;20.50;50.80;;;;;;5073460;28;19966;-89
2022/11/09 12:25:55;;;;;;;;;;;20.90;50.40;;;;;;5074868;28;19953;-89
2022/11/09 12:28:27;;;;;;;;;;;20.80;49.10;;;;;;5074359;28;20025;-89
2022/11/09 12:31:03;;;;;;;;;;;20.50;49.10;;;;;;5071413;28;19975;-89
2022/11/09 12:33:35;;;;;;;;;;;20.50;50.60;;;;;;5070859;28;19985;-89
2022/11/09 12:36:10;;;;;;;;;;;20.50;49.40;;;;;;5075119;28;20518;-89
2022/11/09 12:38:38;;;;;;;;;;;20.70;49.60;;;;;;5069739;28;19979;-89
2022/11/09 12:41:07;;;;;;;;;;;20.80;49.60;;;;;;5071734;28;20042;-89
2022/11/09 12:43:52;;;;;;;;;;;20.90;49.50;;;;;;5069742;28;20340;-89
2022/11/09 12:46:19;;;;;;;;;;;21.00;48.50;;;;;;5072016;28;20389;-89
2022/11/09 12:48:45;;;;;;;;;;;21.10;48.60;;;;;;5065575;28;19950;-89
2022/11/09 12:51:11;;;;;;;;;;;21.40;47.60;;;;;;5065576;28;19997;-89
2022/11/09 12:53:37;;;;;;;;;;;21.20;47.60;;;;;;5068544;28;19992;-89
2022/11/09 12:56:03;;;;;;;;;;;21.00;48.60;;;;;;5068557;28;19943;-88
2022/11/09 12:58:33;;;;;;;;;;;20.50;49.40;;;;;;5073459;28;19964;-89
2022/11/09 13:00:59;;;;;;;;;;;20.60;48.10;;;;;;5074227;28;20009;-89
2022/11/09 13:03:37;;;;;;;;;;;20.80;47.70;;;;;;5072064;28;19959;-89
2022/11/09 13:06:08;;;;;;;;;;;21.70;46.90;;;;;;5064723;28;19946;-89
2022/11/09 13:08:34;;;;;;;;;;;22.00;46.30;;;;;;5073468;28;19973;-89
2022/11/09 13:11:07;;;;;;;;;;;22.00;46.70;;;;;;5069521;28;19950;-89
2022/11/09 13:13:33;;;;;;;;;;;21.80;46.60;;;;;;5073181;28;20052;-89
2022/11/09 13:16:07;;;;;;;;;;;21.60;47.80;;;;;;5068823;28;19989;-88
2022/11/09 13:18:36;;;;;;;;;;;21.40;48.50;;;;;;5067854;28;19961;-89
2022/11/09 13:21:19;;;;;;;;;;;21.10;49.70;;;;;;5073480;28;19955;-89
2022/11/09 13:23:45;;;;;;;;;;;20.90;50.00;;;;;;5072834;28;19967;-89
2022/11/09 13:26:40;;;;;;;;;;;20.50;51.00;;;;;;5072537;28;19946;-89
2022/11/09 13:29:08;;;;;;;;;;;20.00;52.30;;;;;;5069646;28;19948;-89
2022/11/09 13:31:52;;;;;;;;;;;19.40;55.30;;;;;;5067713;28;20408;-89
2022/11/09 13:34:41;;;;;;;;;;;18.80;56.30;;;;;;5065518;28;19952;-89
2022/11/09 13:37:25;;;;;;;;;;;18.30;58.80;;;;;;5058739;28;19982;-92
2022/11/09 13:39:51;;;;;;;;;;;17.90;59.60;;;;;;5071344;28;19944;-96
2022/11/09 13:42:37;;;;;;;;;;;17.80;60.70;;;;;;5064491;28;19942;-89
2022/11/09 13:45:21;;;;;;;;;;;17.80;60.90;;;;;;5065367;28;20033;-88
2022/11/09 13:47:50;;;;;;;;;;;17.90;61.20;;;;;;5068714;28;19950;-88
2022/11/09 13:50:20;;;;;;;;;;;17.90;62.00;;;;;;5070197;28;19944;-87
2022/11/09 13:52:50;;;;;;;;;;;17.80;62.40;;;;;;5067277;28;19967;-87
2022/11/09 13:55:29;;;;;;;;;;;17.80;62.30;;;;;;5071148;28;19960;-87
2022/11/09 13:57:57;;;;;;;;;;;17.80;62.80;;;;;;5069262;28;19951;-87
2022/11/09 14:00:23;;;;;;;;;;;17.50;63.60;;;;;;5059103;28;19943;-87
2022/11/09 14:02:58;;;;;;;;;;;17.50;64.10;;;;;;5072803;28;19960;-87
2022/11/09 14:05:28;;;;;;;;;;;17.30;64.90;;;;;;5063730;28;19953;-87
2022/11/09 14:07:54;;;;;;;;;;;16.90;66.30;;;;;;5073467;28;20496;-88
2022/11/09 14:10:29;;;;;;;;;;;16.70;67.60;;;;;;5066929;28;19944;-86
2022/11/09 14:12:55;;;;;;;;;;;16.30;68.00;;;;;;5076652;28;19950;-90
2022/11/09 14:15:30;;;;;;;;;;;16.20;68.80;;;;;;5069321;28;20307;-92
2022/11/09 14:17:59;;;;;;;;;;;16.20;68.70;;;;;;5083849;28;19946;-91
2022/11/09 14:34:01;;;;;;;;;;;16.10;69.10;;;;;;5088817;27;19946;-86
2022/11/09 14:55:05;;;;;;;;;;;16.40;69.20;;;;;;5097394;27;19942;-86
2022/11/09 14:57:30;;;;;;;;;;;16.00;71.70;;;;;;5081746;28;19945;-86
2022/11/09 14:59:56;;;;;;;;;;;15.90;72.10;;;;;;5090924;28;19947;-86
2022/11/09 15:03:25;;;;;;;;;;;15.90;71.90;;;;;;5089127;27;19959;-86
2022/11/09 15:06:01;;;;;;;;;;;15.80;71.90;;;;;;5062231;28;20016;-86